createdAt,value
2019-04-27T00:00:23.230Z,997.37
2019-04-27T00:01:23.349Z,997.30
2019-04-27T00:02:26.565Z,997.31
2019-04-27T00:03:23.498Z,997.28
2019-04-27T00:04:23.604Z,997.23
2019-04-27T00:05:26.640Z,997.22
2019-04-27T00:06:24.163Z,997.21
2019-04-27T00:07:24.121Z,997.22
2019-04-27T00:08:24.014Z,997.32
2019-04-27T00:09:23.126Z,997.29
2019-04-27T00:10:25.276Z,997.35
2019-04-27T00:11:24.124Z,997.20
2019-04-27T00:12:26.387Z,997.30
2019-04-27T00:13:23.084Z,997.23
2019-04-27T00:14:23.975Z,997.33
2019-04-27T00:15:24.700Z,997.31
2019-04-27T00:16:24.049Z,997.28
2019-04-27T00:17:41.267Z,997.25
2019-04-27T00:18:24.041Z,997.34
2019-04-27T00:19:23.284Z,997.35
2019-04-27T00:20:23.966Z,997.27
2019-04-27T00:21:23.718Z,997.31
2019-04-27T00:22:23.121Z,997.26
2019-04-27T00:23:23.641Z,997.23
2019-04-27T00:24:23.536Z,997.24
2019-04-27T00:25:23.099Z,997.22
2019-04-27T00:26:23.355Z,997.13
2019-04-27T00:27:23.434Z,997.17
2019-04-27T00:28:23.097Z,997.15
2019-04-27T00:29:23.647Z,997.19
2019-04-27T00:30:23.479Z,997.20
2019-04-27T00:31:23.411Z,997.18
2019-04-27T00:32:23.151Z,997.19
2019-04-27T00:33:23.825Z,997.19
2019-04-27T00:34:23.639Z,997.22
2019-04-27T00:35:23.480Z,997.17
2019-04-27T00:36:23.300Z,997.17
2019-04-27T00:37:23.734Z,997.11
2019-04-27T00:38:23.313Z,997.16
2019-04-27T00:39:23.138Z,997.16
2019-04-27T00:40:23.558Z,997.14
2019-04-27T00:41:24.225Z,997.05
2019-04-27T00:42:23.191Z,997.08
2019-04-27T00:43:23.008Z,997.06
2019-04-27T00:44:23.727Z,997.04
2019-04-27T00:45:23.448Z,997.08
2019-04-27T00:46:22.917Z,997.05
2019-04-27T00:47:23.855Z,997.06
2019-04-27T00:48:23.365Z,997.06
2019-04-27T00:49:23.880Z,997.10
2019-04-27T00:50:23.489Z,997.04
2019-04-27T00:51:23.162Z,997.05
2019-04-27T00:52:24.025Z,997.08
2019-04-27T00:53:23.517Z,997.02
2019-04-27T00:54:23.804Z,996.95
2019-04-27T00:55:23.448Z,996.98
2019-04-27T00:56:23.573Z,996.95
2019-04-27T00:57:22.888Z,997.04
2019-04-27T00:58:23.071Z,997.02
2019-04-27T00:59:23.844Z,996.95
2019-04-27T01:00:23.533Z,996.97
2019-04-27T01:01:23.344Z,996.97
2019-04-27T01:02:23.222Z,996.91
2019-04-27T01:03:22.900Z,996.97
2019-04-27T01:04:23.734Z,996.98
2019-04-27T01:05:23.074Z,996.94
2019-04-27T01:06:23.402Z,996.96
2019-04-27T01:07:22.797Z,996.89
2019-04-27T01:08:22.934Z,996.89
2019-04-27T01:09:23.674Z,996.88
2019-04-27T01:10:23.325Z,996.90
2019-04-27T01:11:22.711Z,996.95
2019-04-27T01:12:23.722Z,996.87
2019-04-27T01:13:23.043Z,996.92
2019-04-27T01:14:23.055Z,996.89
2019-04-27T01:15:23.772Z,996.82
2019-04-27T01:16:24.207Z,996.89
2019-04-27T01:17:22.369Z,996.87
2019-04-27T01:18:22.341Z,996.77
2019-04-27T01:19:22.338Z,996.83
2019-04-27T01:20:22.328Z,996.86
2019-04-27T01:21:22.316Z,996.78
2019-04-27T01:22:22.359Z,996.76
2019-04-27T01:23:22.288Z,996.83
2019-04-27T01:24:22.280Z,996.81
2019-04-27T01:25:22.264Z,996.73
2019-04-27T01:26:22.261Z,996.68
2019-04-27T01:27:22.239Z,996.74
2019-04-27T01:28:22.274Z,996.66
2019-04-27T01:29:22.218Z,996.72
2019-04-27T01:30:22.208Z,996.67
2019-04-27T01:31:22.200Z,996.76
2019-04-27T01:32:22.183Z,996.69
2019-04-27T01:33:22.250Z,996.72
2019-04-27T01:34:22.176Z,996.69
2019-04-27T01:35:22.151Z,996.67
2019-04-27T01:36:22.141Z,996.60
2019-04-27T01:37:22.131Z,996.59
2019-04-27T01:38:22.128Z,996.66
2019-04-27T01:39:22.172Z,996.63
2019-04-27T01:40:22.096Z,996.62
2019-04-27T01:41:22.080Z,996.60
2019-04-27T01:42:22.072Z,996.63
2019-04-27T01:43:22.084Z,996.59
2019-04-27T01:44:22.053Z,996.60
2019-04-27T01:45:22.083Z,996.57
2019-04-27T01:46:22.027Z,996.62
2019-04-27T01:47:22.025Z,996.57
2019-04-27T01:48:25.254Z,996.59
2019-04-27T01:49:22.038Z,996.63
2019-04-27T01:50:22.009Z,996.56
2019-04-27T01:51:21.971Z,996.54
2019-04-27T01:52:21.965Z,996.49
2019-04-27T01:53:21.955Z,996.45
2019-04-27T01:54:22.012Z,996.45
2019-04-27T01:55:21.942Z,996.43
2019-04-27T01:56:21.944Z,996.50
2019-04-27T01:57:21.906Z,996.45
2019-04-27T01:58:21.900Z,996.40
2019-04-27T01:59:21.886Z,996.39
2019-04-27T02:00:21.937Z,996.45
2019-04-27T02:01:21.864Z,996.48
2019-04-27T02:02:21.856Z,996.47
2019-04-27T02:03:21.845Z,996.51
2019-04-27T02:04:21.828Z,996.53
2019-04-27T02:05:21.829Z,996.56
2019-04-27T02:06:21.870Z,996.52
2019-04-27T02:07:21.800Z,996.58
2019-04-27T02:08:21.782Z,996.59
2019-04-27T02:09:21.782Z,996.54
2019-04-27T02:10:21.775Z,996.57
2019-04-27T02:11:21.751Z,996.54
2019-04-27T02:12:21.806Z,996.60
2019-04-27T02:13:21.731Z,996.57
2019-04-27T02:14:21.718Z,996.54
2019-04-27T02:15:21.726Z,996.62
2019-04-27T02:16:21.699Z,996.56
2019-04-27T02:17:21.689Z,996.57
2019-04-27T02:18:34.318Z,996.57
2019-04-27T02:19:22.663Z,996.56
2019-04-27T02:20:21.651Z,996.66
2019-04-27T02:21:21.636Z,996.62
2019-04-27T02:22:21.648Z,996.62
2019-04-27T02:23:21.615Z,996.61
2019-04-27T02:24:21.670Z,996.66
2019-04-27T02:25:21.594Z,996.66
2019-04-27T02:26:21.671Z,996.70
2019-04-27T02:27:21.572Z,996.66
2019-04-27T02:28:21.562Z,996.59
2019-04-27T02:29:21.547Z,996.60
2019-04-27T02:30:21.608Z,996.59
2019-04-27T02:31:21.544Z,996.65
2019-04-27T02:32:21.518Z,996.62
2019-04-27T02:33:21.522Z,996.68
2019-04-27T02:34:21.494Z,996.69
2019-04-27T02:35:21.485Z,996.69
2019-04-27T02:36:21.532Z,996.64
2019-04-27T02:37:21.466Z,996.68
2019-04-27T02:38:21.446Z,996.69
2019-04-27T02:39:21.706Z,996.65
2019-04-27T02:40:21.428Z,996.65
2019-04-27T02:41:21.416Z,996.59
2019-04-27T02:42:21.469Z,996.68
2019-04-27T02:43:21.394Z,996.65
2019-04-27T02:44:21.382Z,996.64
2019-04-27T02:45:22.189Z,996.73
2019-04-27T02:46:21.361Z,996.68
2019-04-27T02:47:21.417Z,996.69
2019-04-27T02:48:21.339Z,996.65
2019-04-27T02:49:21.327Z,996.60
2019-04-27T02:50:21.316Z,996.65
2019-04-27T02:51:21.316Z,996.61
2019-04-27T02:52:21.309Z,996.57
2019-04-27T02:53:21.348Z,996.58
2019-04-27T02:54:21.274Z,996.61
2019-04-27T02:55:21.276Z,996.66
2019-04-27T02:56:21.250Z,996.67
2019-04-27T02:57:21.235Z,996.67
2019-04-27T02:58:21.657Z,996.69
2019-04-27T02:59:21.267Z,996.70
2019-04-27T03:00:21.274Z,996.75
2019-04-27T03:01:21.195Z,996.69
2019-04-27T03:02:21.182Z,996.72
2019-04-27T03:03:21.173Z,996.71
2019-04-27T03:04:21.166Z,996.70
2019-04-27T03:05:21.145Z,996.75
2019-04-27T03:06:21.183Z,996.70
2019-04-27T03:07:21.126Z,996.67
2019-04-27T03:08:21.119Z,996.80
2019-04-27T03:09:21.106Z,996.77
2019-04-27T03:10:21.090Z,996.77
2019-04-27T03:11:23.417Z,996.80
2019-04-27T03:12:21.071Z,996.80
2019-04-27T03:13:21.056Z,996.79
2019-04-27T03:14:32.670Z,996.76
2019-04-27T03:15:23.331Z,996.76
2019-04-27T03:16:21.106Z,996.76
2019-04-27T03:17:22.712Z,996.76
2019-04-27T03:18:21.000Z,996.76
2019-04-27T03:19:21.938Z,996.74
2019-04-27T03:20:20.978Z,996.71
2019-04-27T03:21:20.967Z,996.72
2019-04-27T03:22:21.040Z,996.77
2019-04-27T03:23:20.941Z,996.74
2019-04-27T03:24:22.993Z,996.70
2019-04-27T03:25:20.920Z,996.79
2019-04-27T03:26:20.907Z,996.70
2019-04-27T03:27:20.918Z,996.76
2019-04-27T03:28:20.935Z,996.74
2019-04-27T03:29:22.918Z,996.77
2019-04-27T03:30:22.931Z,996.74
2019-04-27T03:31:21.754Z,996.89
2019-04-27T03:32:22.542Z,996.81
2019-04-27T03:33:22.010Z,996.76
2019-04-27T03:34:22.390Z,996.84
2019-04-27T03:35:22.841Z,996.86
2019-04-27T03:36:21.671Z,996.87
2019-04-27T03:37:20.786Z,996.84
2019-04-27T03:38:20.771Z,996.82
2019-04-27T03:39:20.825Z,996.81
2019-04-27T03:40:20.746Z,996.84
2019-04-27T03:41:20.733Z,996.80
2019-04-27T03:42:20.906Z,996.86
2019-04-27T03:43:20.719Z,996.88
2019-04-27T03:44:20.702Z,996.85
2019-04-27T03:45:33.537Z,996.95
2019-04-27T03:46:20.736Z,996.87
2019-04-27T03:47:20.668Z,996.91
2019-04-27T03:48:20.661Z,996.86
2019-04-27T03:49:35.115Z,996.83
2019-04-27T03:50:21.645Z,996.87
2019-04-27T03:51:20.691Z,996.88
2019-04-27T03:52:20.613Z,996.90
2019-04-27T03:53:23.237Z,996.82
2019-04-27T03:54:22.128Z,996.75
2019-04-27T03:55:20.577Z,996.81
2019-04-27T03:56:20.566Z,996.79
2019-04-27T03:57:20.617Z,996.76
2019-04-27T03:58:21.653Z,996.75
2019-04-27T03:59:20.539Z,996.79
2019-04-27T04:00:20.538Z,996.72
2019-04-27T04:01:20.515Z,996.78
2019-04-27T04:02:20.499Z,996.76
2019-04-27T04:03:20.587Z,996.78
2019-04-27T04:04:20.481Z,996.76
2019-04-27T04:05:20.479Z,996.72
2019-04-27T04:06:20.464Z,996.75
2019-04-27T04:07:20.449Z,996.66
2019-04-27T04:08:20.437Z,996.71
2019-04-27T04:09:20.496Z,996.72
2019-04-27T04:10:20.417Z,996.81
2019-04-27T04:11:20.404Z,996.79
2019-04-27T04:12:20.390Z,996.68
2019-04-27T04:13:22.627Z,996.74
2019-04-27T04:14:20.502Z,996.69
2019-04-27T04:15:20.429Z,996.78
2019-04-27T04:16:20.466Z,996.76
2019-04-27T04:18:45.792Z,996.80
2019-04-27T04:19:40.170Z,996.81
2019-04-27T04:20:30.745Z,996.82
2019-04-27T04:21:30.044Z,996.79
2019-04-27T04:22:30.259Z,996.74
2019-04-27T04:23:30.079Z,996.85
2019-04-27T04:24:31.787Z,996.80
2019-04-27T04:25:30.229Z,996.70
2019-04-27T04:26:32.872Z,996.83
2019-04-27T04:27:30.048Z,996.79
2019-04-27T04:28:29.742Z,996.82
2019-04-27T04:29:30.664Z,996.85
2019-04-27T04:30:30.458Z,996.78
2019-04-27T04:31:33.191Z,996.84
2019-04-27T04:32:29.947Z,996.69
2019-04-27T04:33:30.374Z,996.81
2019-04-27T04:34:29.912Z,996.68
2019-04-27T04:35:32.537Z,996.72
2019-04-27T04:36:30.197Z,996.72
2019-04-27T04:37:29.770Z,996.69
2019-04-27T04:38:30.412Z,996.80
2019-04-27T04:39:29.783Z,996.75
2019-04-27T04:40:30.690Z,996.76
2019-04-27T04:41:30.384Z,996.70
2019-04-27T04:42:30.055Z,996.72
2019-04-27T04:43:29.548Z,996.72
2019-04-27T04:44:30.227Z,996.72
2019-04-27T04:45:30.552Z,996.81
2019-04-27T04:46:29.856Z,996.76
2019-04-27T04:47:30.575Z,996.78
2019-04-27T04:48:30.251Z,996.79
2019-04-27T04:49:29.755Z,996.79
2019-04-27T04:50:30.436Z,996.85
2019-04-27T04:51:30.343Z,996.68
2019-04-27T04:52:29.563Z,996.73
2019-04-27T04:53:29.475Z,996.70
2019-04-27T04:54:29.971Z,996.70
2019-04-27T04:55:30.673Z,996.77
2019-04-27T04:56:29.362Z,996.81
2019-04-27T04:57:29.918Z,996.75
2019-04-27T04:58:29.498Z,996.69
2019-04-27T04:59:29.289Z,996.75
2019-04-27T05:00:29.931Z,996.82
2019-04-27T05:01:29.940Z,996.79
2019-04-27T05:02:29.436Z,996.81
2019-04-27T05:03:29.149Z,996.76
2019-04-27T05:04:29.267Z,996.81
2019-04-27T05:05:29.415Z,996.79
2019-04-27T05:06:29.374Z,996.86
2019-04-27T05:07:29.686Z,996.79
2019-04-27T05:08:29.280Z,996.80
2019-04-27T05:09:29.666Z,996.86
2019-04-27T05:10:31.178Z,996.83
2019-04-27T05:11:29.738Z,996.88
2019-04-27T05:12:29.051Z,996.79
2019-04-27T05:13:29.413Z,996.86
2019-04-27T05:14:29.095Z,996.91
2019-04-27T05:15:29.383Z,996.80
2019-04-27T05:16:29.070Z,996.86
2019-04-27T05:17:29.687Z,996.86
2019-04-27T05:18:29.423Z,996.86
2019-04-27T05:19:28.992Z,996.82
2019-04-27T05:20:29.461Z,996.82
2019-04-27T05:21:29.468Z,996.90
2019-04-27T05:22:29.598Z,996.90
2019-04-27T05:23:28.917Z,996.89
2019-04-27T05:24:29.365Z,996.89
2019-04-27T05:25:28.895Z,996.94
2019-04-27T05:26:29.497Z,996.94
2019-04-27T05:27:29.078Z,996.90
2019-04-27T05:28:29.858Z,996.93
2019-04-27T05:29:29.405Z,996.83
2019-04-27T05:30:28.837Z,996.84
2019-04-27T05:31:29.377Z,996.83
2019-04-27T05:32:29.225Z,996.86
2019-04-27T05:33:28.801Z,996.84
2019-04-27T05:34:29.464Z,996.85
2019-04-27T05:35:29.750Z,996.90
2019-04-27T05:36:29.641Z,996.92
2019-04-27T05:37:31.659Z,996.91
2019-04-27T05:38:29.463Z,996.92
2019-04-27T05:39:29.955Z,996.88
2019-04-27T05:40:30.954Z,996.81
2019-04-27T05:41:31.206Z,996.90
2019-04-27T05:42:29.758Z,996.89
2019-04-27T05:43:31.771Z,996.93
2019-04-27T05:44:28.723Z,996.90
2019-04-27T05:45:29.152Z,996.92
2019-04-27T05:46:29.703Z,996.90
2019-04-27T05:47:29.665Z,996.81
2019-04-27T05:48:30.673Z,996.76
2019-04-27T05:49:29.493Z,996.86
2019-04-27T05:50:37.676Z,996.86
2019-04-27T05:51:36.744Z,996.77
2019-04-27T05:52:29.945Z,996.81
2019-04-27T05:53:29.115Z,996.79
2019-04-27T05:54:29.430Z,996.84
2019-04-27T05:55:29.209Z,996.87
2019-04-27T05:56:28.937Z,996.82
2019-04-27T05:57:31.233Z,996.80
2019-04-27T05:58:28.994Z,996.94
2019-04-27T05:59:29.783Z,996.89
2019-04-27T06:00:29.311Z,996.76
2019-04-27T06:01:29.685Z,996.81
2019-04-27T06:02:30.226Z,996.80
2019-04-27T06:03:29.602Z,996.83
2019-04-27T06:04:29.121Z,996.81
2019-04-27T06:05:29.228Z,996.83
2019-04-27T06:06:29.514Z,996.77
2019-04-27T06:07:29.703Z,996.78
2019-04-27T06:08:29.503Z,996.80
2019-04-27T06:09:28.971Z,996.86
2019-04-27T06:10:29.665Z,996.77
2019-04-27T06:11:28.724Z,996.80
2019-04-27T06:12:29.678Z,996.79
2019-04-27T06:13:30.706Z,996.79
2019-04-27T06:14:29.199Z,996.79
2019-04-27T06:15:29.991Z,996.73
2019-04-27T06:16:29.527Z,996.70
2019-04-27T06:17:29.931Z,996.70
2019-04-27T06:18:29.451Z,996.68
2019-04-27T06:19:29.116Z,996.69
2019-04-27T06:20:28.664Z,996.68
2019-04-27T06:21:29.456Z,996.67
2019-04-27T06:22:29.273Z,996.67
2019-04-27T06:23:28.930Z,996.68
2019-04-27T06:24:29.781Z,996.65
2019-04-27T06:25:30.544Z,996.69
2019-04-27T06:26:30.068Z,996.64
2019-04-27T06:27:30.649Z,996.59
2019-04-27T06:28:29.028Z,996.60
2019-04-27T06:29:29.247Z,996.59
2019-04-27T06:30:29.191Z,996.59
2019-04-27T06:31:29.681Z,996.61
2019-04-27T06:32:29.585Z,996.61
2019-04-27T06:33:34.132Z,996.66
2019-04-27T06:34:30.974Z,996.61
2019-04-27T06:35:28.817Z,996.58
2019-04-27T06:36:28.762Z,996.55
2019-04-27T06:37:29.349Z,996.54
2019-04-27T06:38:29.304Z,996.53
2019-04-27T06:39:29.730Z,996.52
2019-04-27T06:40:29.070Z,996.53
2019-04-27T06:41:29.438Z,996.58
2019-04-27T06:42:29.688Z,996.51
2019-04-27T06:43:29.418Z,996.51
2019-04-27T06:44:29.328Z,996.53
2019-04-27T06:45:28.556Z,996.49
2019-04-27T06:46:28.834Z,996.48
2019-04-27T06:47:29.509Z,996.46
2019-04-27T06:48:29.528Z,996.47
2019-04-27T06:49:29.504Z,996.47
2019-04-27T06:50:29.499Z,996.48
2019-04-27T06:51:28.713Z,996.48
2019-04-27T06:52:29.188Z,996.53
2019-04-27T06:53:29.155Z,996.48
2019-04-27T06:54:28.826Z,996.46
2019-04-27T06:55:29.132Z,996.51
2019-04-27T06:56:28.766Z,996.47
2019-04-27T06:57:29.239Z,996.49
2019-04-27T06:58:29.251Z,996.48
2019-04-27T06:59:28.839Z,996.53
2019-04-27T07:00:28.899Z,996.51
2019-04-27T07:01:27.782Z,996.51
2019-04-27T07:02:29.097Z,996.54
2019-04-27T07:03:28.944Z,996.48
2019-04-27T07:04:29.377Z,996.49
2019-04-27T07:05:28.941Z,996.54
2019-04-27T07:06:28.579Z,996.53
2019-04-27T07:07:29.499Z,996.50
2019-04-27T07:08:28.635Z,996.46
2019-04-27T07:09:29.366Z,996.48
2019-04-27T07:10:28.586Z,996.51
2019-04-27T07:11:29.598Z,996.45
2019-04-27T07:12:28.803Z,996.47
2019-04-27T07:13:29.159Z,996.57
2019-04-27T07:14:29.324Z,996.48
2019-04-27T07:15:28.679Z,996.46
2019-04-27T07:16:29.509Z,996.51
2019-04-27T07:17:28.972Z,996.47
2019-04-27T07:18:28.587Z,996.53
2019-04-27T07:19:28.605Z,996.48
2019-04-27T07:20:30.307Z,996.46
2019-04-27T07:21:28.664Z,996.51
2019-04-27T07:22:27.549Z,996.47
2019-04-27T07:23:29.310Z,996.45
2019-04-27T07:24:29.162Z,996.45
2019-04-27T07:25:28.877Z,996.45
2019-04-27T07:26:27.496Z,996.45
2019-04-27T07:27:29.170Z,996.45
2019-04-27T07:28:28.640Z,996.48
2019-04-27T07:29:29.035Z,996.43
2019-04-27T07:30:28.836Z,996.50
2019-04-27T07:31:29.510Z,996.51
2019-04-27T07:32:29.134Z,996.47
2019-04-27T07:33:27.420Z,996.48
2019-04-27T07:34:28.605Z,996.44
2019-04-27T07:35:27.395Z,996.50
2019-04-27T07:36:28.992Z,996.48
2019-04-27T07:37:29.260Z,996.49
2019-04-27T07:38:29.265Z,996.50
2019-04-27T07:39:29.235Z,996.48
2019-04-27T07:40:30.117Z,996.45
2019-04-27T07:41:29.077Z,996.38
2019-04-27T07:42:30.263Z,996.37
2019-04-27T07:43:29.177Z,996.47
2019-04-27T07:44:27.290Z,996.45
2019-04-27T07:45:29.400Z,996.42
2019-04-27T07:46:29.885Z,996.41
2019-04-27T07:47:27.266Z,996.40
2019-04-27T07:48:28.559Z,996.42
2019-04-27T07:49:29.020Z,996.36
2019-04-27T07:50:28.976Z,996.39
2019-04-27T07:51:32.159Z,996.41
2019-04-27T07:52:28.686Z,996.42
2019-04-27T07:53:29.075Z,996.38
2019-04-27T07:54:28.468Z,996.42
2019-04-27T07:55:28.798Z,996.40
2019-04-27T07:56:29.046Z,996.37
2019-04-27T07:57:28.902Z,996.37
2019-04-27T07:58:27.140Z,996.35
2019-04-27T07:59:27.117Z,996.41
2019-04-27T08:00:28.936Z,996.37
2019-04-27T08:01:27.103Z,996.31
2019-04-27T08:02:28.984Z,996.35
2019-04-27T08:03:28.932Z,996.30
2019-04-27T08:04:28.691Z,996.30
2019-04-27T08:05:27.053Z,996.24
2019-04-27T08:06:28.994Z,996.21
2019-04-27T08:07:28.907Z,996.21
2019-04-27T08:08:28.602Z,996.24
2019-04-27T08:09:27.081Z,996.26
2019-04-27T08:10:26.996Z,996.19
2019-04-27T08:11:28.843Z,996.25
2019-04-27T08:12:28.771Z,996.19
2019-04-27T08:13:26.972Z,996.26
2019-04-27T08:14:28.525Z,996.22
2019-04-27T08:15:26.994Z,996.24
2019-04-27T08:16:28.872Z,996.17
2019-04-27T08:17:28.302Z,996.21
2019-04-27T08:18:26.915Z,996.18
2019-04-27T08:19:26.891Z,996.12
2019-04-27T08:20:26.879Z,996.08
2019-04-27T08:21:28.760Z,996.18
2019-04-27T08:22:26.932Z,996.16
2019-04-27T08:23:26.846Z,996.15
2019-04-27T08:24:26.834Z,996.09
2019-04-27T08:25:26.822Z,996.17
2019-04-27T08:26:28.640Z,996.21
2019-04-27T08:27:26.798Z,996.08
2019-04-27T08:28:28.685Z,996.14
2019-04-27T08:29:26.781Z,996.04
2019-04-27T08:30:26.763Z,996.09
2019-04-27T08:31:28.619Z,996.12
2019-04-27T08:32:26.742Z,996.09
2019-04-27T08:33:26.731Z,996.09
2019-04-27T08:34:26.935Z,996.07
2019-04-27T08:35:26.710Z,996.01
2019-04-27T08:36:26.695Z,996.01
2019-04-27T08:37:28.574Z,996.06
2019-04-27T08:38:26.672Z,995.96
2019-04-27T08:39:26.662Z,995.94
2019-04-27T08:40:26.718Z,995.95
2019-04-27T08:41:26.638Z,995.92
2019-04-27T08:42:26.630Z,995.93
2019-04-27T08:43:26.617Z,995.97
2019-04-27T08:44:26.769Z,995.99
2019-04-27T08:45:26.594Z,995.93
2019-04-27T08:46:28.449Z,996.06
2019-04-27T08:47:26.572Z,996.01
2019-04-27T08:48:34.678Z,996.08
2019-04-27T08:49:29.256Z,996.11
2019-04-27T08:50:26.536Z,996.05
2019-04-27T08:51:26.524Z,996.10
2019-04-27T08:52:26.581Z,996.03
2019-04-27T08:53:26.501Z,995.99
2019-04-27T08:54:26.489Z,995.96
2019-04-27T08:55:26.486Z,996.00
2019-04-27T08:56:26.466Z,995.93
2019-04-27T08:57:26.458Z,995.94
2019-04-27T08:58:28.490Z,995.99
2019-04-27T08:59:26.434Z,995.91
2019-04-27T09:00:26.427Z,995.91
2019-04-27T09:01:26.409Z,995.90
2019-04-27T09:02:38.906Z,995.91
2019-04-27T09:03:29.297Z,995.87
2019-04-27T09:04:26.376Z,995.83
2019-04-27T09:05:26.372Z,995.82
2019-04-27T09:06:26.427Z,995.89
2019-04-27T09:07:26.344Z,995.88
2019-04-27T09:08:26.347Z,995.87
2019-04-27T09:09:26.318Z,995.88
2019-04-27T09:10:26.307Z,995.81
2019-04-27T09:11:26.296Z,995.92
2019-04-27T09:12:26.352Z,995.84
2019-04-27T09:13:26.277Z,995.83
2019-04-27T09:14:26.263Z,995.82
2019-04-27T09:15:26.250Z,995.87
2019-04-27T09:16:26.242Z,995.76
2019-04-27T09:17:26.227Z,995.83
2019-04-27T09:18:26.426Z,995.83
2019-04-27T09:19:26.214Z,995.70
2019-04-27T09:20:26.196Z,995.82
2019-04-27T09:21:26.183Z,995.81
2019-04-27T09:22:26.172Z,995.89
2019-04-27T09:23:26.160Z,995.81
2019-04-27T09:24:26.216Z,995.81
2019-04-27T09:25:26.138Z,995.83
2019-04-27T09:26:26.125Z,995.74
2019-04-27T09:27:26.115Z,995.77
2019-04-27T09:28:26.105Z,995.62
2019-04-27T09:29:26.093Z,995.68
2019-04-27T09:30:26.153Z,995.61
2019-04-27T09:31:26.073Z,995.65
2019-04-27T09:32:26.061Z,995.68
2019-04-27T09:33:26.056Z,995.64
2019-04-27T09:34:26.154Z,995.65
2019-04-27T09:35:26.470Z,995.64
2019-04-27T09:36:26.155Z,995.72
2019-04-27T09:37:27.454Z,995.69
2019-04-27T09:38:26.560Z,995.67
2019-04-27T09:39:26.519Z,995.68
2019-04-27T09:40:26.753Z,995.66
2019-04-27T09:41:26.290Z,995.68
2019-04-27T09:42:26.828Z,995.65
2019-04-27T09:43:26.518Z,995.70
2019-04-27T09:44:26.654Z,995.75
2019-04-27T09:45:27.064Z,995.65
2019-04-27T09:46:26.073Z,995.63
2019-04-27T09:47:26.688Z,995.65
2019-04-27T09:48:26.118Z,995.62
2019-04-27T09:49:26.378Z,995.78
2019-04-27T09:50:28.236Z,995.54
2019-04-27T09:51:25.849Z,995.67
2019-04-27T09:52:28.298Z,995.72
2019-04-27T09:53:27.033Z,995.64
2019-04-27T09:54:27.219Z,995.65
2019-04-27T09:55:26.361Z,995.59
2019-04-27T09:56:26.154Z,995.57
2019-04-27T09:57:26.024Z,995.39
2019-04-27T09:58:25.876Z,995.71
2019-04-27T09:59:26.547Z,995.49
2019-04-27T10:00:27.624Z,995.64
2019-04-27T10:01:26.513Z,995.47
2019-04-27T10:02:27.030Z,995.68
2019-04-27T10:03:26.643Z,995.66
2019-04-27T10:04:26.340Z,995.63
2019-04-27T10:05:26.305Z,995.62
2019-04-27T10:06:29.755Z,995.63
2019-04-27T10:07:26.800Z,995.55
2019-04-27T10:08:26.187Z,995.48
2019-04-27T10:09:26.339Z,995.59
2019-04-27T10:10:26.755Z,995.47
2019-04-27T10:11:26.498Z,995.56
2019-04-27T10:12:26.065Z,995.59
2019-04-27T10:13:25.719Z,995.54
2019-04-27T10:14:26.528Z,995.55
2019-04-27T10:15:26.689Z,995.54
2019-04-27T10:16:25.755Z,995.51
2019-04-27T10:17:25.593Z,995.52
2019-04-27T10:18:26.596Z,995.46
2019-04-27T10:19:30.707Z,995.53
2019-04-27T10:20:26.533Z,995.26
2019-04-27T10:21:26.412Z,995.60
2019-04-27T10:22:39.533Z,995.51
2019-04-27T10:23:26.490Z,995.61
2019-04-27T10:24:25.808Z,995.28
2019-04-27T10:25:25.466Z,995.26
2019-04-27T10:26:25.893Z,995.60
2019-04-27T10:27:25.949Z,995.21
2019-04-27T10:28:25.500Z,995.18
2019-04-27T10:29:26.811Z,995.42
2019-04-27T10:30:25.823Z,995.15
2019-04-27T10:31:25.399Z,995.31
2019-04-27T10:32:26.065Z,995.16
2019-04-27T10:33:25.822Z,995.46
2019-04-27T10:34:25.432Z,995.34
2019-04-27T10:35:26.026Z,995.39
2019-04-27T10:36:26.883Z,995.13
2019-04-27T10:37:25.330Z,995.26
2019-04-27T10:38:25.958Z,995.45
2019-04-27T10:39:25.710Z,995.42
2019-04-27T10:40:26.372Z,995.41
2019-04-27T10:41:25.959Z,995.38
2019-04-27T10:42:27.088Z,995.40
2019-04-27T10:43:25.828Z,995.28
2019-04-27T10:44:26.661Z,995.28
2019-04-27T10:45:25.255Z,995.28
2019-04-27T10:46:25.835Z,995.24
2019-04-27T10:47:26.039Z,994.94
2019-04-27T10:48:26.533Z,995.36
2019-04-27T10:49:25.199Z,995.35
2019-04-27T10:50:26.592Z,994.96
2019-04-27T10:51:26.145Z,994.99
2019-04-27T10:52:25.228Z,994.98
2019-04-27T10:53:26.771Z,995.39
2019-04-27T10:54:25.144Z,995.33
2019-04-27T10:55:26.190Z,995.39
2019-04-27T10:56:25.482Z,995.47
2019-04-27T10:57:25.803Z,995.40
2019-04-27T10:58:25.434Z,995.38
2019-04-27T10:59:25.083Z,995.39
2019-04-27T11:00:25.697Z,995.34
2019-04-27T11:01:25.752Z,995.35
2019-04-27T11:02:25.051Z,995.36
2019-04-27T11:03:25.595Z,995.33
2019-04-27T11:04:26.045Z,995.28
2019-04-27T11:05:26.241Z,995.34
2019-04-27T11:06:26.188Z,995.25
2019-04-27T11:07:25.971Z,995.34
2019-04-27T11:08:24.984Z,995.31
2019-04-27T11:09:25.732Z,995.26
2019-04-27T11:10:25.985Z,995.18
2019-04-27T11:11:25.892Z,995.22
2019-04-27T11:12:24.945Z,995.22
2019-04-27T11:13:25.762Z,995.16
2019-04-27T11:14:26.168Z,995.25
2019-04-27T11:15:26.383Z,995.26
2019-04-27T11:16:24.952Z,995.23
2019-04-27T11:17:26.644Z,995.23
2019-04-27T11:18:25.782Z,995.24
2019-04-27T11:19:26.656Z,995.24
2019-04-27T11:20:27.570Z,995.18
2019-04-27T11:21:26.184Z,995.19
2019-04-27T11:22:26.046Z,995.13
2019-04-27T11:23:26.094Z,995.20
2019-04-27T11:24:24.812Z,995.17
2019-04-27T11:25:26.394Z,995.13
2019-04-27T11:26:26.323Z,995.17
2019-04-27T11:27:24.842Z,995.19
2019-04-27T11:28:25.879Z,995.18
2019-04-27T11:29:25.953Z,995.14
2019-04-27T11:30:24.744Z,995.15
2019-04-27T11:31:26.120Z,995.17
2019-04-27T11:32:24.730Z,995.09
2019-04-27T11:33:26.353Z,995.12
2019-04-27T11:34:24.701Z,995.05
2019-04-27T11:35:25.766Z,994.89
2019-04-27T11:36:25.601Z,994.67
2019-04-27T11:37:24.665Z,995.14
2019-04-27T11:38:26.503Z,995.04
2019-04-27T11:39:26.030Z,995.01
2019-04-27T11:40:24.633Z,994.96
2019-04-27T11:41:26.270Z,994.96
2019-04-27T11:42:24.612Z,995.05
2019-04-27T11:43:26.104Z,994.61
2019-04-27T11:44:25.757Z,994.96
2019-04-27T11:45:26.466Z,994.96
2019-04-27T11:46:24.574Z,994.86
2019-04-27T11:47:24.558Z,994.72
2019-04-27T11:48:26.213Z,994.92
2019-04-27T11:49:25.812Z,994.79
2019-04-27T11:50:25.655Z,994.88
2019-04-27T11:51:26.480Z,994.87
2019-04-27T11:52:24.502Z,994.84
2019-04-27T11:53:26.254Z,994.83
2019-04-27T11:54:25.577Z,994.84
2019-04-27T11:55:24.470Z,994.75
2019-04-27T11:56:24.457Z,994.74
2019-04-27T11:57:24.516Z,994.79
2019-04-27T11:58:24.445Z,994.78
2019-04-27T11:59:24.425Z,994.71
2019-04-27T12:00:24.416Z,994.68
2019-04-27T12:01:24.406Z,994.70
2019-04-27T12:02:25.780Z,994.79
2019-04-27T12:03:24.598Z,994.41
2019-04-27T12:04:26.190Z,994.54
2019-04-27T12:05:26.025Z,994.48
2019-04-27T12:06:25.857Z,994.74
2019-04-27T12:07:24.335Z,994.76
2019-04-27T12:08:24.324Z,994.66
2019-04-27T12:09:24.526Z,994.69
2019-04-27T12:10:26.115Z,994.42
2019-04-27T12:11:26.020Z,994.36
2019-04-27T12:12:25.816Z,994.62
2019-04-27T12:13:25.828Z,994.62
2019-04-27T12:14:24.261Z,994.20
2019-04-27T12:15:26.065Z,994.34
2019-04-27T12:16:25.830Z,994.27
2019-04-27T12:17:26.710Z,994.31
2019-04-27T12:18:24.215Z,994.26
2019-04-27T12:19:24.205Z,994.60
2019-04-27T12:20:25.814Z,994.56
2019-04-27T12:21:24.249Z,994.47
2019-04-27T12:22:24.171Z,994.56
2019-04-27T12:23:33.780Z,994.16
2019-04-27T12:24:26.750Z,994.46
2019-04-27T12:25:24.138Z,994.12
2019-04-27T12:26:25.926Z,994.20
2019-04-27T12:27:25.690Z,994.56
2019-04-27T12:28:25.606Z,994.27
2019-04-27T12:29:24.099Z,994.28